createdAt,value
2024-01-24T00:05:27.821Z,0.60
2024-01-24T00:15:32.309Z,0.50
2024-01-24T00:25:35.031Z,0.50
2024-01-24T00:35:39.449Z,0.40
2024-01-24T00:45:42.238Z,0.43
2024-01-24T00:55:47.426Z,0.40
2024-01-24T01:05:50.701Z,0.60
2024-01-24T01:15:55.209Z,0.40
2024-01-24T01:25:57.980Z,0.35
2024-01-24T01:36:08.948Z,0.40
2024-01-24T01:46:21.000Z,0.30
2024-01-24T01:56:25.873Z,0.43
2024-01-24T02:06:30.093Z,0.20
2024-01-24T02:16:34.354Z,0.30
2024-01-24T02:26:38.707Z,0.30
2024-01-24T02:36:41.491Z,0.35
2024-01-24T02:56:48.378Z,0.30
2024-01-24T03:06:52.795Z,0.50
2024-01-24T03:16:55.581Z,0.30
2024-01-24T03:26:59.705Z,0.20
2024-01-24T03:37:02.703Z,0.40
2024-01-24T03:47:07.267Z,0.40
2024-01-24T03:57:10.069Z,0.35
2024-01-24T04:17:16.929Z,0.30
2024-01-24T04:37:23.732Z,0.45
2024-01-24T04:47:27.990Z,0.30
2024-01-24T04:57:30.860Z,0.30
2024-01-24T05:07:35.647Z,0.30
2024-01-24T05:17:40.228Z,0.30
2024-01-24T05:27:44.490Z,0.20
2024-01-24T05:37:47.377Z,0.22
2024-01-24T05:47:51.595Z,0.30
2024-01-24T05:57:54.523Z,0.20
2024-01-24T06:07:58.703Z,0.25
2024-01-24T06:18:01.558Z,0.35
2024-01-24T06:28:06.388Z,0.40
2024-01-24T06:38:09.272Z,0.40
2024-01-24T06:58:16.549Z,0.30
2024-01-24T07:08:20.745Z,0.30
2024-01-24T07:18:23.681Z,0.80
2024-01-24T07:28:30.292Z,0.43
2024-01-24T07:38:33.366Z,0.50
2024-01-24T07:48:37.706Z,0.30
2024-01-24T07:58:41.911Z,0.50
2024-01-24T08:08:46.349Z,0.90
2024-01-24T08:18:50.472Z,0.88
2024-01-24T08:28:54.721Z,1.02
2024-01-24T08:38:57.492Z,1.10
2024-01-24T08:49:04.083Z,1.23
2024-01-24T08:59:07.249Z,1.95
2024-01-24T09:09:15.240Z,1.30
2024-01-24T09:19:19.053Z,1.27
2024-01-24T09:29:23.517Z,1.45
2024-01-24T09:39:27.025Z,2.20
2024-01-24T09:49:33.129Z,2.42
2024-01-24T09:59:36.045Z,2.50
2024-01-24T10:09:40.178Z,1.90
2024-01-24T10:19:43.395Z,2.20
2024-01-24T10:29:47.712Z,3.20
2024-01-24T10:39:53.572Z,2.20
2024-01-24T10:50:02.227Z,2.28
2024-01-24T11:00:07.164Z,2.67
2024-01-24T11:10:17.918Z,2.70
2024-01-24T11:20:23.205Z,3.60
2024-01-24T11:30:40.569Z,1.98
2024-01-24T11:40:45.230Z,2.10
2024-01-24T11:50:55.846Z,2.13
2024-01-24T12:01:00.879Z,2.30
2024-01-24T12:11:05.885Z,2.45
2024-01-24T12:21:10.410Z,2.42
2024-01-24T12:31:15.086Z,2.38
2024-01-24T12:41:18.476Z,2.15
2024-01-24T12:51:23.161Z,7.07
2024-01-24T13:01:26.072Z,2.60
2024-01-24T13:11:30.420Z,2.05
2024-01-24T13:21:33.867Z,2.35
2024-01-24T13:31:38.025Z,2.05
2024-01-24T13:41:41.070Z,3.25
2024-01-24T13:51:45.821Z,2.40
2024-01-24T14:01:54.066Z,2.38
2024-01-24T14:12:04.048Z,3.30
2024-01-24T14:22:07.619Z,2.30
2024-01-24T14:32:12.109Z,2.92
2024-01-24T14:42:15.089Z,2.38
2024-01-24T14:52:19.313Z,2.63
2024-01-24T15:02:22.102Z,2.25
2024-01-24T15:22:31.648Z,2.25
2024-01-24T15:32:35.874Z,2.53
2024-01-24T15:42:42.952Z,2.97
2024-01-24T15:52:48.415Z,2.63
2024-01-24T16:02:51.437Z,2.60
2024-01-24T16:23:02.440Z,2.72
2024-01-24T16:43:10.309Z,2.70
2024-01-24T16:53:14.788Z,3.08
2024-01-24T17:03:17.578Z,3.80
2024-01-24T17:13:22.904Z,2.83
2024-01-24T17:23:25.766Z,2.80
2024-01-24T17:33:30.247Z,2.20
2024-01-24T17:43:35.084Z,3.45
2024-01-24T17:53:39.869Z,2.63
2024-01-24T18:03:42.725Z,3.55
2024-01-24T18:13:46.912Z,3.85
2024-01-24T18:23:50.004Z,3.17
2024-01-24T18:33:56.377Z,3.72
2024-01-24T18:43:59.352Z,3.20
2024-01-24T18:54:03.798Z,5.03
2024-01-24T19:04:06.842Z,3.10
2024-01-24T19:14:11.252Z,3.10
2024-01-24T19:24:14.354Z,5.10
2024-01-24T19:44:23.091Z,3.20
2024-01-24T19:54:27.977Z,2.90
2024-01-24T20:04:31.380Z,3.95
2024-01-24T20:14:36.824Z,5.70
2024-01-24T20:24:39.917Z,2.67
2024-01-24T20:34:44.194Z,3.65
2024-01-24T20:44:47.087Z,5.80
2024-01-24T20:54:53.305Z,3.70
2024-01-24T21:04:56.275Z,3.13
2024-01-24T21:25:10.161Z,2.83
2024-01-24T21:35:14.469Z,3.17
2024-01-24T21:45:17.658Z,2.60
2024-01-24T22:05:24.649Z,3.58
2024-01-24T22:15:28.992Z,3.65
2024-01-24T22:25:33.985Z,3.05
2024-01-24T22:35:43.204Z,2.63
2024-01-24T22:45:46.470Z,2.50
2024-01-24T22:55:50.682Z,2.40
2024-01-24T23:05:57.111Z,3.25
2024-01-24T23:16:01.500Z,2.70
2024-01-24T23:26:04.390Z,2.65
2024-01-24T23:36:09.500Z,2.88
2024-01-24T23:46:12.939Z,2.30
2024-01-24T23:56:17.100Z,2.10
